Time;durP1;ratioP1;P1;durP2;ratioP2;P2;SDS_P1;SDS_P2;PMS_P1;PMS_P2;Temp;Humidity;BMP_temperature;BMP_pressure;BME280_temperature;BME280_humidity;BME280_pressure;Samples;Min_cycle;Max_cycle;Signal;HPM_P1;HPM_P2
2023/04/23 00:00:44;;;;;;;;;;;;;;;12.19;53.28;99642.73;105132;1260;75250;-69
2023/04/23 00:03:13;;;;;;;;;;;;;;;12.16;53.67;99645.36;105303;1260;68125;-71
2023/04/23 00:05:42;;;;;;;;;;;;;;;12.13;53.93;99645.13;105402;1254;73514;-71
2023/04/23 00:08:10;;;;;;;;;;;;;;;12.10;54.40;99644.46;105796;1256;62227;-71
2023/04/23 00:10:38;;;;;;;;;;;;;;;12.07;54.52;99647.31;105372;1254;61374;-72
2023/04/23 00:13:06;;;;;;;;;;;;;;;12.04;54.72;99649.50;105195;1258;74380;-70
2023/04/23 00:15:34;;;;;;;;;;;;;;;12.01;55.32;99651.31;105771;1260;66465;-70
2023/04/23 00:18:02;;;;;;;;;;;;;;;11.99;55.56;99650.44;105800;1254;71750;-70
2023/04/23 00:20:31;;;;;;;;;;;;;;;11.97;55.65;99651.44;105854;1254;61234;-69
2023/04/23 00:23:00;;;;;;;;;;;;;;;11.94;56.08;99652.11;105282;1257;61475;-69
2023/04/23 00:25:28;;;;;;;;;;;;;;;11.91;56.52;99654.73;105091;1260;76128;-72
2023/04/23 00:27:56;;;;;;;;;;;;;;;11.88;56.85;99657.10;105828;1260;68468;-69
2023/04/23 00:30:24;;;;;;;;;;;;;;;11.85;57.10;99656.97;105233;1259;73905;-70
2023/04/23 00:32:53;;;;;;;;;;;;;;;11.82;57.23;99657.65;105415;1257;61366;-70
2023/04/23 00:35:21;;;;;;;;;;;;;;;11.79;57.30;99653.15;105275;1256;61247;-69
2023/04/23 00:37:49;;;;;;;;;;;;;;;11.77;57.42;99652.86;105416;1259;72831;-71
2023/04/23 00:40:17;;;;;;;;;;;;;;;11.75;57.59;99655.66;105786;1256;68270;-69
2023/04/23 00:42:46;;;;;;;;;;;;;;;11.71;57.69;99658.02;105326;1257;73693;-69
2023/04/23 00:45:14;;;;;;;;;;;;;;;11.68;58.13;99661.41;105560;1254;61220;-69
2023/04/23 00:47:42;;;;;;;;;;;;;;;11.65;58.18;99665.30;105714;1254;61282;-69
2023/04/23 00:50:11;;;;;;;;;;;;;;;11.63;58.23;99665.39;105400;1254;73570;-68
2023/04/23 00:52:40;;;;;;;;;;;;;;;11.60;58.52;99667.33;105065;1256;68906;-69
2023/04/23 00:55:09;;;;;;;;;;;;;;;11.58;58.76;99663.31;105234;1257;74184;-69
2023/04/23 00:57:37;;;;;;;;;;;;;;;11.57;58.87;99664.10;105113;1256;61406;-71
2023/04/23 01:00:06;;;;;;;;;;;;;;;11.55;59.02;99661.89;105028;1256;61270;-69
2023/04/23 01:02:35;;;;;;;;;;;;;;;11.54;59.15;99661.75;105065;1260;73064;-69
2023/04/23 01:05:04;;;;;;;;;;;;;;;11.52;59.51;99665.19;105246;1257;68705;-69
2023/04/23 01:07:37;;;;;;;;;;;;;;;11.50;59.60;99664.70;105370;1260;74568;-70
2023/04/23 01:10:06;;;;;;;;;;;;;;;11.49;59.78;99662.63;104908;1256;589424;-70
2023/04/23 01:12:34;;;;;;;;;;;;;;;11.47;60.00;99659.86;105369;1256;61573;-70
2023/04/23 01:15:03;;;;;;;;;;;;;;;11.46;60.25;99662.61;105232;1260;74370;-68
2023/04/23 01:17:33;;;;;;;;;;;;;;;11.44;60.24;99660.00;105385;1256;69031;-70
2023/04/23 01:20:01;;;;;;;;;;;;;;;11.42;60.35;99664.08;105176;1254;73536;-70
2023/04/23 01:22:29;;;;;;;;;;;;;;;11.39;60.81;99665.95;105079;1256;62120;-70
2023/04/23 01:24:57;;;;;;;;;;;;;;;11.36;61.08;99662.04;105256;1256;61229;-70
2023/04/23 01:27:26;;;;;;;;;;;;;;;11.34;61.60;99668.31;105186;1259;76578;-70
2023/04/23 01:29:54;;;;;;;;;;;;;;;11.31;62.05;99669.59;105332;1254;69433;-72
2023/04/23 01:32:22;;;;;;;;;;;;;;;11.30;62.21;99670.66;105193;1261;73747;-69
2023/04/23 01:34:50;;;;;;;;;;;;;;;11.29;62.45;99670.74;105067;1256;61249;-71
2023/04/23 01:37:18;;;;;;;;;;;;;;;11.27;62.52;99671.70;105192;1257;61247;-70
2023/04/23 01:39:46;;;;;;;;;;;;;;;11.24;62.62;99669.41;105358;1254;74914;-70
2023/04/23 01:42:14;;;;;;;;;;;;;;;11.22;63.03;99671.77;105776;1256;69225;-71
2023/04/23 01:44:43;;;;;;;;;;;;;;;11.19;63.30;99675.23;105688;1260;72473;-70
2023/04/23 01:47:10;;;;;;;;;;;;;;;11.17;63.40;99670.68;105720;1258;61405;-70
2023/04/23 01:49:38;;;;;;;;;;;;;;;11.14;63.41;99674.41;105623;1254;61342;-70
2023/04/23 01:52:07;;;;;;;;;;;;;;;11.10;63.45;99679.11;106038;1257;75360;-68
2023/04/23 01:54:35;;;;;;;;;;;;;;;11.08;63.51;99679.15;105358;1256;68322;-69
2023/04/23 01:57:04;;;;;;;;;;;;;;;11.05;63.47;99679.76;105265;1256;73639;-67
2023/04/23 01:59:33;;;;;;;;;;;;;;;11.04;63.07;99682.70;104988;1256;61321;-68
2023/04/23 02:02:01;;;;;;;;;;;;;;;11.02;63.38;99682.32;105188;1255;61366;-70
2023/04/23 02:04:30;;;;;;;;;;;;;;;11.01;63.28;99684.73;105289;1259;75481;-73
2023/04/23 02:06:58;;;;;;;;;;;;;;;11.01;63.36;99683.87;105726;1256;69746;-74
2023/04/23 02:09:26;;;;;;;;;;;;;;;11.00;63.44;99686.09;105804;1256;72559;-73
2023/04/23 02:11:56;;;;;;;;;;;;;;;10.99;63.63;99685.51;105574;1256;61245;-72
2023/04/23 02:14:24;;;;;;;;;;;;;;;10.97;63.80;99687.60;105804;1254;61270;-72
2023/04/23 02:16:52;;;;;;;;;;;;;;;10.96;63.85;99688.00;105632;1261;73399;-74
2023/04/23 02:19:21;;;;;;;;;;;;;;;10.92;64.34;99685.17;105544;1255;68106;-71
2023/04/23 02:21:49;;;;;;;;;;;;;;;10.87;64.81;99686.62;105808;1256;74822;-72
2023/04/23 02:24:17;;;;;;;;;;;;;;;10.83;65.24;99688.49;105636;1263;61300;-73
2023/04/23 02:26:46;;;;;;;;;;;;;;;10.78;65.51;99686.62;105726;1255;61296;-73
2023/04/23 02:29:15;;;;;;;;;;;;;;;10.77;65.59;99685.69;105889;1257;73623;-74
2023/04/23 02:31:43;;;;;;;;;;;;;;;10.78;65.45;99687.81;105665;1259;66691;-74
2023/04/23 02:34:11;;;;;;;;;;;;;;;10.80;65.54;99691.42;105591;1260;74059;-73
2023/04/23 02:36:39;;;;;;;;;;;;;;;10.81;65.69;99693.59;105749;1254;61345;-73
2023/04/23 02:39:07;;;;;;;;;;;;;;;10.81;65.89;99696.55;105862;1254;61397;-73
2023/04/23 02:41:35;;;;;;;;;;;;;;;10.78;66.06;99697.66;105836;1256;74689;-73
2023/04/23 02:44:03;;;;;;;;;;;;;;;10.77;66.18;99697.41;105846;1256;68558;-73
2023/04/23 02:46:35;;;;;;;;;;;;;;;10.76;66.55;99697.40;105799;1258;73556;-74
2023/04/23 02:49:03;;;;;;;;;;;;;;;10.74;66.74;99695.44;105799;1254;61243;-73
2023/04/23 02:51:32;;;;;;;;;;;;;;;10.74;66.75;99695.77;105839;1256;61907;-74
2023/04/23 02:54:00;;;;;;;;;;;;;;;10.74;66.60;99699.11;105622;1260;74151;-74
2023/04/23 02:56:28;;;;;;;;;;;;;;;10.74;66.38;99699.54;105724;1256;69433;-73
2023/04/23 02:58:56;;;;;;;;;;;;;;;10.74;66.16;99701.04;105609;1256;72665;-75
2023/04/23 03:01:24;;;;;;;;;;;;;;;10.74;66.32;99696.25;105835;1254;61436;-74
2023/04/23 03:03:53;;;;;;;;;;;;;;;10.72;66.76;99698.48;105899;1256;61292;-73
2023/04/23 03:06:21;;;;;;;;;;;;;;;10.71;66.95;99701.59;105666;1256;75020;-74
2023/04/23 03:08:49;;;;;;;;;;;;;;;10.70;66.92;99698.45;105479;1256;67937;-74
2023/04/23 03:11:17;;;;;;;;;;;;;;;10.70;67.17;99702.55;105663;1256;73219;-75
2023/04/23 03:13:46;;;;;;;;;;;;;;;10.68;67.21;99702.80;105682;1256;61335;-74
2023/04/23 03:16:14;;;;;;;;;;;;;;;10.66;67.24;99707.97;105533;1255;61708;-73
2023/04/23 03:18:42;;;;;;;;;;;;;;;10.65;66.39;99710.11;105673;1256;75548;-73
2023/04/23 03:21:10;;;;;;;;;;;;;;;10.65;65.98;99712.91;105663;1259;67712;-73
2023/04/23 03:23:38;;;;;;;;;;;;;;;10.65;65.24;99717.11;105471;1255;74590;-73
2023/04/23 03:26:06;;;;;;;;;;;;;;;10.65;65.22;99720.13;105608;1256;61254;-74
2023/04/23 03:28:34;;;;;;;;;;;;;;;10.62;66.55;99720.68;105692;1256;61354;-74
2023/04/23 03:31:04;;;;;;;;;;;;;;;10.54;67.18;99722.79;105802;1257;75826;-74
2023/04/23 03:33:32;;;;;;;;;;;;;;;10.48;67.21;99727.34;105579;1256;68658;-74
2023/04/23 03:36:01;;;;;;;;;;;;;;;10.47;66.89;99727.95;105809;1257;72320;-74
2023/04/23 03:38:30;;;;;;;;;;;;;;;10.48;66.90;99728.13;105928;1254;62068;-73
2023/04/23 03:40:59;;;;;;;;;;;;;;;10.47;66.91;99730.54;105712;1256;61371;-72
2023/04/23 03:43:27;;;;;;;;;;;;;;;10.49;66.53;99735.30;105421;1256;76544;-73
2023/04/23 03:46:05;;;;;;;;;;;;;;;10.54;65.34;99741.12;105790;1254;69762;-72
2023/04/23 03:48:37;;;;;;;;;;;;;;;10.60;64.94;99739.86;105852;1254;72191;-72
2023/04/23 03:51:09;;;;;;;;;;;;;;;10.62;65.12;99738.59;105520;1256;61351;-73
2023/04/23 03:53:43;;;;;;;;;;;;;;;10.62;65.08;99741.81;105679;1260;61340;-73
2023/04/23 03:56:34;;;;;;;;;;;;;;;10.62;65.36;99740.16;105672;1258;74620;-73
2023/04/23 03:59:34;;;;;;;;;;;;;;;10.65;64.83;99744.02;105405;1256;68859;-72
2023/04/23 04:02:03;;;;;;;;;;;;;;;10.68;64.53;99745.46;105066;1259;72704;-73
2023/04/23 04:04:32;;;;;;;;;;;;;;;10.71;63.65;99751.46;105678;1256;61674;-72
2023/04/23 04:07:01;;;;;;;;;;;;;;;10.72;63.18;99752.08;105855;1258;61272;-71
2023/04/23 04:09:29;;;;;;;;;;;;;;;10.75;62.95;99753.71;105816;1258;76484;-72
2023/04/23 04:12:03;;;;;;;;;;;;;;;10.78;62.46;99756.02;105813;1256;68822;-70
2023/04/23 04:14:31;;;;;;;;;;;;;;;10.83;62.33;99756.25;105736;1256;72400;-72
2023/04/23 04:16:59;;;;;;;;;;;;;;;10.85;63.39;99759.40;105745;1258;61590;-72
2023/04/23 04:19:27;;;;;;;;;;;;;;;10.86;63.77;99759.23;105695;1256;61238;-74
2023/04/23 04:21:55;;;;;;;;;;;;;;;10.87;63.70;99763.09;105776;1260;76062;-71
2023/04/23 04:24:24;;;;;;;;;;;;;;;10.88;63.34;99765.25;105450;1257;68655;-72
2023/04/23 04:26:53;;;;;;;;;;;;;;;10.90;63.41;99767.21;105702;1256;71971;-72
2023/04/23 04:29:22;;;;;;;;;;;;;;;10.93;63.39;99770.36;105724;1256;60034;-71
2023/04/23 04:31:51;;;;;;;;;;;;;;;10.97;62.95;99769.83;105796;1256;61246;-71
2023/04/23 04:34:20;;;;;;;;;;;;;;;11.00;62.23;99770.34;105906;1258;76420;-71
2023/04/23 04:36:48;;;;;;;;;;;;;;;11.05;61.63;99769.28;105679;1255;68647;-73
2023/04/23 04:39:16;;;;;;;;;;;;;;;11.10;61.60;99771.87;105761;1256;71427;-72
2023/04/23 04:41:45;;;;;;;;;;;;;;;11.15;61.12;99777.09;105741;1256;61356;-73
2023/04/23 04:44:15;;;;;;;;;;;;;;;11.21;61.04;99781.75;105764;1254;61281;-71
2023/04/23 04:46:43;;;;;;;;;;;;;;;11.25;61.26;99782.02;105813;1254;74166;-73
2023/04/23 04:49:12;;;;;;;;;;;;;;;11.30;61.32;99781.69;105252;1259;67061;-71
2023/04/23 04:51:40;;;;;;;;;;;;;;;11.35;61.87;99781.91;105746;1256;72820;-72
2023/04/23 04:54:08;;;;;;;;;;;;;;;11.39;62.02;99787.55;105758;1258;61295;-71
2023/04/23 04:56:36;;;;;;;;;;;;;;;11.44;62.06;99792.66;105782;1259;61262;-72
2023/04/23 04:59:04;;;;;;;;;;;;;;;11.49;62.01;99790.14;105180;1254;73615;-73
2023/04/23 05:01:32;;;;;;;;;;;;;;;11.55;61.54;99790.41;105695;1256;66664;-71
2023/04/23 05:04:00;;;;;;;;;;;;;;;11.60;61.39;99793.92;105698;1256;73409;-72
2023/04/23 05:06:30;;;;;;;;;;;;;;;11.66;61.14;99791.02;105695;1261;61290;-72
2023/04/23 05:08:58;;;;;;;;;;;;;;;11.71;61.08;99796.52;105293;1256;61119;-71
2023/04/23 05:11:26;;;;;;;;;;;;;;;11.77;61.17;99793.74;105757;1256;76126;-73
2023/04/23 05:13:55;;;;;;;;;;;;;;;11.84;60.33;99799.35;105852;1256;68031;-72
2023/04/23 05:16:23;;;;;;;;;;;;;;;11.91;60.10;99803.15;105126;1260;72210;-73
2023/04/23 05:18:51;;;;;;;;;;;;;;;11.97;60.21;99803.35;105580;1257;61362;-72
2023/04/23 05:21:19;;;;;;;;;;;;;;;12.04;60.03;99802.23;105713;1260;61405;-74
2023/04/23 05:23:48;;;;;;;;;;;;;;;12.10;60.08;99804.88;105172;1260;75647;-70
2023/04/23 05:26:17;;;;;;;;;;;;;;;12.18;60.11;99808.11;105638;1256;69034;-72
2023/04/23 05:28:45;;;;;;;;;;;;;;;12.25;59.79;99809.54;105769;1260;72530;-71
2023/04/23 05:31:13;;;;;;;;;;;;;;;12.33;59.88;99812.83;105383;1256;62133;-71
2023/04/23 05:33:43;;;;;;;;;;;;;;;12.40;59.99;99813.20;105780;1256;61368;-73
2023/04/23 05:36:17;;;;;;;;;;;;;;;12.46;59.85;99817.52;105802;1256;74413;-71
2023/04/23 05:38:45;;;;;;;;;;;;;;;12.52;59.85;99818.25;105649;1264;68087;-74
2023/04/23 05:41:14;;;;;;;;;;;;;;;12.57;60.00;99819.05;105848;1259;73533;-73
2023/04/23 05:43:43;;;;;;;;;;;;;;;12.62;59.97;99818.00;105785;1254;61377;-72
2023/04/23 05:46:11;;;;;;;;;;;;;;;12.68;59.60;99822.63;105863;1260;61974;-73
2023/04/23 05:48:39;;;;;;;;;;;;;;;12.74;59.31;99821.15;105713;1261;75862;-78
2023/04/23 05:51:08;;;;;;;;;;;;;;;12.80;58.84;99821.84;105829;1258;69734;-73
2023/04/23 05:53:36;;;;;;;;;;;;;;;12.86;58.83;99822.95;105691;1256;74573;-75
2023/04/23 05:56:05;;;;;;;;;;;;;;;12.91;58.24;99824.16;105816;1255;61204;-73
2023/04/23 05:58:34;;;;;;;;;;;;;;;12.99;57.90;99828.09;105851;1259;61413;-72
2023/04/23 06:01:02;;;;;;;;;;;;;;;13.06;57.19;99827.64;105861;1259;76040;-74
2023/04/23 06:03:30;;;;;;;;;;;;;;;13.16;57.20;99827.23;105781;1256;69972;-75
2023/04/23 06:05:59;;;;;;;;;;;;;;;13.26;56.89;99831.28;105780;1254;73875;-74
2023/04/23 06:08:28;;;;;;;;;;;;;;;13.37;56.92;99829.71;105922;1257;61237;-75
2023/04/23 06:10:56;;;;;;;;;;;;;;;13.51;56.28;99832.89;105899;1256;61272;-75
2023/04/23 06:13:25;;;;;;;;;;;;;;;13.65;56.06;99835.52;106027;1254;76023;-76
2023/04/23 06:15:53;;;;;;;;;;;;;;;13.78;55.70;99838.48;105794;1255;68663;-76
2023/04/23 06:18:22;;;;;;;;;;;;;;;13.91;54.51;99837.70;105835;1256;73955;-76
2023/04/23 06:20:50;;;;;;;;;;;;;;;14.02;54.19;99839.70;105815;1256;61344;-74
2023/04/23 06:23:18;;;;;;;;;;;;;;;14.11;53.44;99843.45;105897;1256;61215;-75
2023/04/23 06:25:46;;;;;;;;;;;;;;;14.20;52.62;99847.14;105887;1259;76317;-74
2023/04/23 06:28:15;;;;;;;;;;;;;;;14.31;52.29;99846.23;105756;1256;70118;-77
2023/04/23 06:31:01;;;;;;;;;;;;;;;14.43;51.68;99846.58;105526;1256;72554;-77
2023/04/23 06:33:29;;;;;;;;;;;;;;;14.57;50.91;99848.30;105743;1260;61276;-75
2023/04/23 06:35:57;;;;;;;;;;;;;;;14.70;49.97;99850.34;105750;1259;61256;-75
2023/04/23 06:38:25;;;;;;;;;;;;;;;14.84;50.12;99854.07;105707;1256;75473;-74
2023/04/23 06:40:53;;;;;;;;;;;;;;;14.97;49.55;99853.92;105767;1256;68597;-77
2023/04/23 06:43:21;;;;;;;;;;;;;;;15.09;49.28;99854.16;105776;1260;72466;-75
2023/04/23 06:46:15;;;;;;;;;;;;;;;15.22;49.03;99848.70;105525;1256;61748;-75
2023/04/23 06:48:43;;;;;;;;;;;;;;;15.35;49.13;99854.13;105796;1259;61274;-74
2023/04/23 06:51:11;;;;;;;;;;;;;;;15.49;48.71;99852.05;105627;1259;76423;-71
2023/04/23 06:53:39;;;;;;;;;;;;;;;15.60;48.42;99852.36;105834;1256;68471;-71
2023/04/23 06:56:07;;;;;;;;;;;;;;;15.68;48.19;99852.01;105397;1256;74196;-70
2023/04/23 06:58:36;;;;;;;;;;;;;;;15.75;47.62;99855.49;105253;1256;61440;-69
2023/04/23 07:01:12;;;;;;;;;;;;;;;15.80;46.93;99853.68;105341;1261;61256;-70
2023/04/23 07:03:43;;;;;;;;;;;;;;;15.87;46.34;99854.29;105294;1261;76104;-68
2023/04/23 07:06:12;;;;;;;;;;;;;;;15.92;44.70;99850.63;105469;1259;68073;-69
2023/04/23 07:08:41;;;;;;;;;;;;;;;15.95;43.91;99854.63;105337;1259;74665;-70
2023/04/23 07:11:09;;;;;;;;;;;;;;;15.98;43.05;99855.90;105651;1259;61399;-71
2023/04/23 07:13:37;;;;;;;;;;;;;;;16.03;42.48;99853.86;105684;1256;61416;-72
2023/04/23 07:16:05;;;;;;;;;;;;;;;16.09;42.07;99854.85;105715;1256;74400;-72
2023/04/23 07:18:35;;;;;;;;;;;;;;;16.14;42.17;99850.85;105570;1260;70350;-75
2023/04/23 07:21:03;;;;;;;;;;;;;;;16.21;42.13;99854.39;105796;1257;74054;-76
2023/04/23 07:23:31;;;;;;;;;;;;;;;16.26;41.89;99855.81;105861;1259;61277;-74
2023/04/23 07:25:59;;;;;;;;;;;;;;;16.32;40.55;99857.02;105745;1256;61296;-77
2023/04/23 07:28:28;;;;;;;;;;;;;;;16.35;39.96;99859.21;105836;1256;75964;-76
2023/04/23 07:31:01;;;;;;;;;;;;;;;16.38;39.50;99862.73;105845;1256;69679;-75
2023/04/23 07:33:29;;;;;;;;;;;;;;;16.41;39.83;99861.29;105585;1261;73757;-71
2023/04/23 07:35:57;;;;;;;;;;;;;;;16.43;39.94;99864.42;105680;1256;61366;-70
2023/04/23 07:38:25;;;;;;;;;;;;;;;16.47;39.88;99866.83;105729;1260;61204;-71
2023/04/23 07:40:53;;;;;;;;;;;;;;;16.50;40.08;99865.07;105741;1255;76521;-71
2023/04/23 07:43:22;;;;;;;;;;;;;;;16.55;40.04;99865.95;105566;1261;67188;-72
2023/04/23 07:45:50;;;;;;;;;;;;;;;16.61;39.96;99868.27;105468;1257;72381;-71
2023/04/23 07:48:18;;;;;;;;;;;;;;;16.66;39.68;99866.98;105576;1261;61283;-71
2023/04/23 07:50:46;;;;;;;;;;;;;;;16.71;39.64;99864.80;105726;1256;61377;-71
2023/04/23 07:53:14;;;;;;;;;;;;;;;16.75;38.27;99866.30;105757;1258;74903;-71
2023/04/23 07:55:42;;;;;;;;;;;;;;;16.79;38.24;99865.98;105801;1256;69386;-72
2023/04/23 07:58:10;;;;;;;;;;;;;;;16.82;38.32;99864.70;105775;1255;72681;-72
2023/04/23 08:00:39;;;;;;;;;;;;;;;16.85;38.81;99864.55;105542;1256;61846;-71
2023/04/23 08:03:07;;;;;;;;;;;;;;;16.89;39.09;99869.30;105628;1256;61267;-70
2023/04/23 08:05:37;;;;;;;;;;;;;;;16.93;39.61;99865.17;105472;1256;74785;-72
2023/04/23 08:08:07;;;;;;;;;;;;;;;16.99;39.78;99863.82;105946;1256;69363;-73
2023/04/23 08:10:35;;;;;;;;;;;;;;;17.06;39.75;99865.70;105754;1256;74461;-73
2023/04/23 08:13:04;;;;;;;;;;;;;;;17.13;39.25;99861.29;105764;1256;62096;-71
2023/04/23 08:15:32;;;;;;;;;;;;;;;17.19;39.12;99861.05;105824;1256;61652;-71
2023/04/23 08:18:00;;;;;;;;;;;;;;;17.24;38.11;99854.58;105818;1255;74864;-72
2023/04/23 08:20:28;;;;;;;;;;;;;;;17.30;37.73;99852.55;105573;1256;69371;-70
2023/04/23 08:22:56;;;;;;;;;;;;;;;17.36;37.78;99852.09;105581;1256;72801;-69
2023/04/23 08:25:25;;;;;;;;;;;;;;;17.43;36.80;99854.73;105653;1256;61406;-72
2023/04/23 08:27:53;;;;;;;;;;;;;;;17.50;36.17;99851.49;105613;1256;61339;-70
2023/04/23 08:30:21;;;;;;;;;;;;;;;17.56;36.38;99852.45;105638;1255;74737;-70
2023/04/23 08:32:49;;;;;;;;;;;;;;;17.63;36.38;99852.11;105541;1261;69624;-72
2023/04/23 08:35:18;;;;;;;;;;;;;;;17.67;36.38;99849.71;105683;1256;73982;-72
2023/04/23 08:37:46;;;;;;;;;;;;;;;17.73;35.70;99849.64;105508;1256;61453;-72
2023/04/23 08:40:15;;;;;;;;;;;;;;;17.76;35.59;99849.05;105491;1260;61876;-73
2023/04/23 08:42:46;;;;;;;;;;;;;;;17.80;35.89;99853.84;105503;1256;75667;-74
2023/04/23 08:45:16;;;;;;;;;;;;;;;17.83;35.73;99850.64;105659;1260;66699;-70
2023/04/23 08:47:44;;;;;;;;;;;;;;;17.85;35.06;99845.71;105506;1256;73520;-73
2023/04/23 08:50:15;;;;;;;;;;;;;;;17.84;35.49;99847.38;105743;1258;61543;-73
2023/04/23 08:52:49;;;;;;;;;;;;;;;17.89;35.66;99845.77;105595;1256;61329;-76
2023/04/23 08:55:17;;;;;;;;;;;;;;;17.96;35.58;99843.77;105721;1257;75388;-74
2023/04/23 08:57:45;;;;;;;;;;;;;;;18.00;34.91;99845.34;105521;1256;69709;-72
2023/04/23 09:00:14;;;;;;;;;;;;;;;18.05;34.77;99846.23;105791;1257;73517;-69
2023/04/23 09:02:43;;;;;;;;;;;;;;;18.07;34.25;99841.37;105864;1256;61927;-70
2023/04/23 09:05:11;;;;;;;;;;;;;;;18.08;33.81;99840.10;105620;1259;61273;-71
2023/04/23 09:07:40;;;;;;;;;;;;;;;18.11;34.04;99839.09;106143;1259;76474;-71
2023/04/23 09:10:10;;;;;;;;;;;;;;;18.13;34.54;99838.98;105177;1256;68813;-70
2023/04/23 09:12:42;;;;;;;;;;;;;;;18.07;34.28;99836.74;105887;1256;74348;-71
2023/04/23 09:15:11;;;;;;;;;;;;;;;18.00;34.73;99828.68;105721;1256;61362;-71
2023/04/23 09:17:42;;;;;;;;;;;;;;;18.01;35.24;99830.69;105882;1260;62754;-70
2023/04/23 09:20:11;;;;;;;;;;;;;;;18.09;34.59;99830.50;105793;1260;76180;-69
2023/04/23 09:22:46;;;;;;;;;;;;;;;18.18;34.15;99830.73;105963;1256;69384;-71
2023/04/23 09:25:16;;;;;;;;;;;;;;;18.23;32.60;99825.70;105671;1256;74862;-70
2023/04/23 09:27:45;;;;;;;;;;;;;;;18.24;32.52;99823.57;105714;1256;62354;-69
2023/04/23 09:30:13;;;;;;;;;;;;;;;18.27;32.71;99823.96;105707;1257;62355;-69
2023/04/23 09:32:42;;;;;;;;;;;;;;;18.38;32.60;99823.67;105710;1256;73536;-70
2023/04/23 09:35:14;;;;;;;;;;;;;;;18.50;31.58;99822.88;105533;1256;69753;-70
2023/04/23 09:37:43;;;;;;;;;;;;;;;18.59;31.45;99820.81;105621;1256;73755;-71
2023/04/23 09:40:12;;;;;;;;;;;;;;;18.70;30.97;99823.14;105185;1263;61261;-69
2023/04/23 09:42:40;;;;;;;;;;;;;;;18.77;30.30;99818.21;105673;1256;61250;-71
2023/04/23 09:45:10;;;;;;;;;;;;;;;18.83;30.66;99808.18;105594;1260;75423;-69
2023/04/23 09:47:38;;;;;;;;;;;;;;;18.93;30.84;99812.51;105698;1256;70709;-71
2023/04/23 09:50:09;;;;;;;;;;;;;;;19.06;30.82;99809.66;105347;1261;73510;-71
2023/04/23 09:52:37;;;;;;;;;;;;;;;19.21;30.60;99817.36;105690;1256;61828;-72
2023/04/23 09:55:05;;;;;;;;;;;;;;;19.26;29.42;99816.08;105522;1256;61252;-72
2023/04/23 09:57:37;;;;;;;;;;;;;;;19.23;29.55;99815.52;105524;1261;76456;-71
2023/04/23 10:00:32;;;;;;;;;;;;;;;19.29;29.40;99813.55;105577;1256;69618;-73
2023/04/23 10:03:00;;;;;;;;;;;;;;;19.37;28.80;99812.40;105545;1256;73690;-71
2023/04/23 10:05:29;;;;;;;;;;;;;;;19.32;27.43;99806.67;105800;1261;61871;-70
2023/04/23 10:08:17;;;;;;;;;;;;;;;19.18;28.33;99804.60;105281;1260;61274;-71
2023/04/23 10:10:45;;;;;;;;;;;;;;;19.24;28.81;99807.58;105710;1256;74234;-70
2023/04/23 10:13:34;;;;;;;;;;;;;;;19.27;27.40;99804.80;105592;1256;69867;-72
2023/04/23 10:16:03;;;;;;;;;;;;;;;19.31;27.78;99809.52;105756;1261;73640;-70
2023/04/23 10:18:49;;;;;;;;;;;;;;;19.35;26.97;99805.89;105706;1261;61290;-69
2023/04/23 10:21:18;;;;;;;;;;;;;;;19.31;27.33;99801.34;105600;1255;61288;-72
2023/04/23 10:23:46;;;;;;;;;;;;;;;19.34;27.60;99801.38;105530;1256;76942;-71
2023/04/23 10:26:14;;;;;;;;;;;;;;;19.46;28.20;99797.77;105699;1256;68866;-70
2023/04/23 10:28:46;;;;;;;;;;;;;;;19.59;28.22;99795.69;105620;1256;73168;-72
2023/04/23 10:31:15;;;;;;;;;;;;;;;19.76;27.71;99797.77;105358;1257;61354;-71
2023/04/23 10:33:43;;;;;;;;;;;;;;;19.87;27.62;99795.16;105494;1256;61307;-71
2023/04/23 10:36:26;;;;;;;;;;;;;;;19.95;28.47;99792.25;105735;1261;76077;-71
2023/04/23 10:38:58;;;;;;;;;;;;;;;20.06;28.59;99789.80;105220;1261;67655;-70
2023/04/23 10:41:30;;;;;;;;;;;;;;;20.16;28.66;99793.69;105580;1256;73107;-70
2023/04/23 10:43:59;;;;;;;;;;;;;;;20.24;28.48;99792.85;105553;1256;61644;-70
2023/04/23 10:46:28;;;;;;;;;;;;;;;20.25;28.47;99790.54;105491;1258;61166;-71
2023/04/23 10:49:09;;;;;;;;;;;;;;;20.27;28.15;99791.27;105684;1260;75721;-70
2023/04/23 10:51:37;;;;;;;;;;;;;;;20.37;28.37;99785.67;105719;1256;68349;-71
2023/04/23 10:54:14;;;;;;;;;;;;;;;20.51;27.78;99783.08;105756;1260;74430;-71
2023/04/23 10:56:42;;;;;;;;;;;;;;;20.60;27.47;99783.17;105693;1261;61273;-72
2023/04/23 10:59:17;;;;;;;;;;;;;;;20.62;27.60;99784.14;105545;1256;61367;-72
2023/04/23 11:01:47;;;;;;;;;;;;;;;20.61;27.19;99780.63;105494;1259;76439;-70
2023/04/23 11:04:22;;;;;;;;;;;;;;;20.53;27.28;99778.60;105785;1260;69899;-70
2023/04/23 11:06:51;;;;;;;;;;;;;;;20.55;27.38;99781.92;105671;1261;74499;-69
2023/04/23 11:09:29;;;;;;;;;;;;;;;20.56;27.71;99775.29;105429;1256;62011;-72
2023/04/23 11:11:58;;;;;;;;;;;;;;;20.64;27.13;99777.81;105730;1262;61372;-68
2023/04/23 11:14:36;;;;;;;;;;;;;;;20.67;27.24;99783.14;105665;1261;75734;-70
2023/04/23 11:17:05;;;;;;;;;;;;;;;20.71;27.11;99778.66;105689;1259;68604;-71
2023/04/23 11:19:34;;;;;;;;;;;;;;;20.70;26.59;99779.77;105805;1257;74559;-72
2023/04/23 11:22:07;;;;;;;;;;;;;;;20.71;26.52;99780.91;105734;1254;62303;-71
2023/04/23 11:24:36;;;;;;;;;;;;;;;20.63;26.57;99779.41;105759;1254;61285;-72
2023/04/23 11:27:05;;;;;;;;;;;;;;;20.49;26.70;99773.01;105704;1258;74708;-73
2023/04/23 11:29:33;;;;;;;;;;;;;;;20.43;27.48;99771.56;105739;1259;69750;-72
2023/04/23 11:32:04;;;;;;;;;;;;;;;20.47;27.04;99769.34;105751;1258;74443;-70
2023/04/23 11:34:34;;;;;;;;;;;;;;;20.51;27.78;99767.27;105665;1256;62629;-72
2023/04/23 11:37:02;;;;;;;;;;;;;;;20.67;27.47;99762.59;105657;1257;61249;-74
2023/04/23 11:39:32;;;;;;;;;;;;;;;20.83;27.15;99762.06;105744;1260;75426;-78
2023/04/23 11:42:04;;;;;;;;;;;;;;;20.92;27.00;99758.12;105646;1257;70174;-75
2023/04/23 11:44:37;;;;;;;;;;;;;;;20.97;26.78;99762.34;105828;1259;72706;-75
2023/04/23 11:47:06;;;;;;;;;;;;;;;21.01;26.35;99763.63;105751;1261;61467;-74
2023/04/23 11:49:36;;;;;;;;;;;;;;;21.03;26.07;99760.43;105750;1261;61418;-75
2023/04/23 11:52:04;;;;;;;;;;;;;;;21.02;26.06;99761.91;105817;1259;76238;-72
2023/04/23 11:54:33;;;;;;;;;;;;;;;20.94;26.26;99763.05;105846;1256;69246;-72
2023/04/23 11:57:03;;;;;;;;;;;;;;;20.84;26.61;99764.95;105710;1259;73410;-73
2023/04/23 11:59:31;;;;;;;;;;;;;;;20.90;26.91;99765.28;105843;1260;62481;-75
2023/04/23 12:01:59;;;;;;;;;;;;;;;20.90;26.28;99763.26;105850;1258;61596;-75
2023/04/23 12:04:30;;;;;;;;;;;;;;;20.77;26.10;99762.73;105787;1260;76498;-77
2023/04/23 12:06:59;;;;;;;;;;;;;;;20.66;26.87;99755.92;105857;1259;68039;-74
2023/04/23 12:09:28;;;;;;;;;;;;;;;20.69;26.97;99753.65;105760;1260;74151;-75
2023/04/23 12:11:57;;;;;;;;;;;;;;;20.79;26.92;99757.97;105756;1262;61363;-75
2023/04/23 12:14:51;;;;;;;;;;;;;;;20.81;26.74;99760.63;106297;1258;61635;-78
2023/04/23 12:18:09;;;;;;;;;;;;;;;20.83;27.11;99757.45;105715;1258;75088;-75
2023/04/23 12:20:39;;;;;;;;;;;;;;;21.00;27.28;99756.66;105777;1255;67861;-74
2023/04/23 12:23:07;;;;;;;;;;;;;;;21.10;27.52;99753.48;105672;1259;72929;-73
2023/04/23 12:25:36;;;;;;;;;;;;;;;21.24;27.66;99754.58;105628;1255;63025;-73
2023/04/23 12:28:05;;;;;;;;;;;;;;;21.41;26.81;99754.73;105643;1256;61229;-73
2023/04/23 12:30:34;;;;;;;;;;;;;;;21.29;26.94;99755.35;105664;1260;76085;-73
2023/04/23 12:33:03;;;;;;;;;;;;;;;21.27;27.47;99751.17;105602;1256;68216;-71
2023/04/23 12:35:41;;;;;;;;;;;;;;;21.38;26.82;99747.48;105828;1259;74100;-77
2023/04/23 12:38:25;;;;;;;;;;;;;;;21.48;26.86;99756.99;105679;1261;62038;-71
2023/04/23 12:40:54;;;;;;;;;;;;;;;21.51;26.47;99754.98;105804;1260;61349;-72
2023/04/23 12:43:22;;;;;;;;;;;;;;;21.53;26.69;99747.38;105759;1261;74452;-70
2023/04/23 12:45:51;;;;;;;;;;;;;;;21.60;26.71;99747.86;105786;1257;67510;-70
2023/04/23 12:48:20;;;;;;;;;;;;;;;21.70;26.69;99740.27;105792;1260;74545;-72